Latest Weather Observations for Mount Hotham Airport

IDV60801

Issued at 6:35 pm EST Sunday 20 April 2014 (issued every 30 minutes, with the page automatically refreshed every 10 minutes)

About weather observations | Map of weather stations | Latest weather observations for VIC | Other Formats
Station Details ID: 083055 Name: MOUNT HOTHAM AIRPORT Lat: -37.05 Lon: 147.33 Height: 1295.4 m
Data from the previous 72 hours. | See also: Recent months at Mount Hotham Airport
Date/Time
EST
Temp
°C
App
Temp
°C
Dew
Point
Rel
Hum
%
Delta-T
°C
Wind Press
QNH
hPa
Press
MSL
hPa
Rain
since 9 am
mm
Dir
 
Spd
km/h
Gust
km/h
Spd
kts
Gust
kts
20/06:30pm 2.5 -1.4 -1.3 76 1.5 WNW 9 15 5 8 1018.9 - 0.0
20/06:00pm 3.8 0.6 -0.6 73 1.8 W 6 9 3 5 1018.6 1017.9 0.0
20/05:30pm 4.1 0.0 -0.5 72 1.9 W 11 17 6 9 1018.2 - 0.0
20/05:00pm 4.5 0.4 -0.5 70 2.0 WSW 11 17 6 9 1018.0 - 0.0
20/04:30pm 5.0 0.5 0.0 70 2.1 W 13 19 7 10 1017.6 - 0.0
20/04:00pm 5.5 1.0 -0.1 67 2.3 W 13 20 7 11 1017.4 - 0.0
20/03:30pm 5.8 0.9 -0.3 65 2.5 W 15 20 8 11 1017.3 - 0.0
20/03:00pm 6.1 1.6 -0.2 64 2.6 W 13 20 7 11 1017.1 1016.4 0.0
20/02:30pm 6.6 2.1 -0.1 62 2.8 NW 13 15 7 8 1016.9 - 0.0
20/02:00pm 8.8 4.5 1.2 59 3.4 WNW 13 20 7 11 1016.7 - 0.0
20/01:30pm 6.9 1.8 0.6 64 2.7 WNW 17 22 9 12 1016.8 - 0.0
20/01:00pm 6.6 3.5 0.1 63 2.7 NNW 6 13 3 7 1016.9 - 0.0
20/12:30pm 8.7 3.1 1.4 60 3.2 WNW 20 32 11 17 1017.0 - 0.0
20/12:00pm 9.3 4.7 1.7 59 3.4 NW 15 22 8 12 1017.0 1016.3 0.0
20/11:30am 8.7 3.7 1.1 59 3.4 NW 17 24 9 13 1017.4 - 0.0
20/11:00am 8.2 3.9 0.7 59 3.3 NW 13 22 7 12 1017.6 - 0.0
20/10:30am 7.5 3.1 0.5 61 3.0 NW 13 19 7 10 1017.7 - 0.0
20/10:00am 8.0 2.9 0.7 60 3.2 NNW 17 22 9 12 1017.6 - 0.0
20/09:30am 6.5 1.8 1.2 69 2.3 N 15 22 8 12 1017.4 - 0.0
20/09:00am 6.0 0.7 1.7 74 1.9 WNW 19 28 10 15 1017.7 1017.0 0.0
20/08:30am 4.9 -0.4 1.7 80 1.4 NW 19 32 10 17 1017.7 - 0.0
20/08:00am 3.9 -0.1 3.0 94 0.4 WNW 13 19 7 10 1017.4 - 0.0
20/07:30am 1.7 -1.2 1.6 99 0.0 NW 6 9 3 5 1016.9 - 0.0
20/07:24am 1.1 -1.9 1.0 99 0.0 NW 6 7 3 4 1016.9 - 0.0
20/07:11am 0.6 -2.1 0.5 99 0.0 NW 4 7 2 4 1016.7 - 0.0
20/07:01am -0.5 -2.6 -0.6 99 0.0 CALM 0 7 0 4 1016.7 - 0.0
20/07:00am -0.5 -2.6 -0.6 99 0.0 CALM 0 7 0 4 1016.7 - 0.0
20/06:42am 0.0 -2.4 -0.1 99 0.0 NNW 2 6 1 3 1016.5 - 0.0
20/06:30am 0.6 -2.1 0.5 99 0.0 NNW 4 7 2 4 1016.5 - 0.0
20/06:00am 0.1 -3.2 0.0 99 0.0 WNW 7 11 4 6 1016.3 1015.6 0.0
20/05:34am -1.2 -4.1 -1.3 99 0.0 NW 4 6 2 3 1016.3 - 0.0
20/05:30am -0.2 -3.0 -0.3 99 0.0 NW 4 7 2 4 1016.2 - 0.0
20/05:16am -1.8 -4.8 -1.9 99 -0.1 NW 4 7 2 4 1016.1 - 0.0
20/05:06am 0.3 -2.0 0.2 99 0.0 NNW 2 6 1 3 1016.1 - 0.0
20/05:00am 0.4 -1.9 0.3 99 0.0 NW 2 4 1 2 1016.1 - 0.0
20/04:30am -1.0 -3.1 -1.1 99 0.0 CALM 0 4 0 2 1015.7 - 0.0
20/04:00am -0.9 -3.4 -1.0 99 0.0 NW 2 7 1 4 1015.7 - 0.0
20/03:35am -1.5 -4.8 -1.6 99 0.0 NNE 6 7 3 4 1015.7 - 0.0
20/03:30am -1.2 -4.5 -1.3 99 0.0 NNE 6 7 3 4 1015.7 - 0.0
20/03:17am 0.1 -3.0 0.0 99 0.0 NNW 6 7 3 4 1016.0 - 0.0
20/03:00am -1.7 -5.1 -1.8 99 0.0 WNW 6 7 3 4 1016.1 1015.3 0.0
20/02:30am 0.6 -2.1 0.5 99 0.0 N 4 7 2 4 1016.1 - 0.0
20/02:15am 0.2 -3.1 0.1 99 0.0 N 7 7 4 4 1016.4 - 0.0
20/02:00am 0.5 -2.6 0.4 99 0.0 N 6 7 3 4 1016.7 - 0.0
20/01:30am -1.0 -3.5 -1.1 99 0.0 NNW 2 6 1 3 1016.9 - 0.0
20/01:00am -0.6 -3.4 -0.7 99 0.0 NNW 4 6 2 3 1017.1 - 0.0
20/12:30am 0.4 -2.3 0.3 99 0.0 N 4 6 2 3 1017.2 - 0.0
20/12:19am 0.0 -2.0 -0.1 99 0.0 CALM 0 6 0 3 1017.3 - 0.0
20/12:00am 0.9 -1.0 0.8 99 0.0 W 0 0 0 0 1017.4 1016.7 0.0
 
Date/Time
EST
Temp
°C
App
Temp
°C
Dew
Point
Rel
Hum
%
Delta-T
°C
Wind Press
QNH
hPa
Press
MSL
hPa
Rain
since 9 am
mm
Dir
 
Spd
km/h
Gust
km/h
Spd
kts
Gust
kts
19/11:58pm 0.9 -1.0 0.8 99 0.0 CALM 0 0 0 0 1017.4 - 0.0
19/11:30pm 0.8 -1.1 0.7 99 0.0 CALM 0 0 0 0 1017.7 - 0.0
19/11:00pm 0.1 -2.7 -0.2 98 0.1 NNE 4 6 2 3 1017.9 - 0.0
19/10:30pm 0.9 -1.8 0.0 94 0.4 NNE 4 6 2 3 1018.1 - 0.0
19/10:01pm 1.8 -1.4 0.9 94 0.4 ENE 7 7 4 4 1018.0 - 0.0
19/10:00pm 1.9 -1.1 1.0 94 0.4 ENE 6 7 3 4 1018.0 - 0.0
19/09:44pm 2.4 0.6 1.2 92 0.5 CALM 0 0 0 0 1018.2 - 0.0
19/09:30pm 2.9 0.8 1.7 92 0.5 NNE 2 4 1 2 1018.2 - 0.0
19/09:06pm 3.6 1.5 1.8 88 0.8 E 2 6 1 3 1018.2 - 0.0
19/09:00pm 4.2 2.2 2.4 88 0.8 ENE 2 6 1 3 1018.2 1017.5 0.0
19/08:48pm 4.4 2.8 2.6 88 0.8 CALM 0 0 0 0 1018.2 - 0.0
19/08:30pm 4.5 2.9 2.5 87 0.9 CALM 0 2 0 1 1018.4 - 0.0
19/08:00pm 4.7 2.3 2.4 85 1.0 ENE 4 4 2 2 1018.4 - 0.0
19/07:30pm 4.3 1.9 2.3 87 0.9 NE 4 6 2 3 1018.4 - 0.0
19/07:00pm 4.4 1.5 1.4 81 1.3 ENE 6 7 3 4 1018.1 - 0.0
19/06:30pm 5.2 2.4 2.0 80 1.4 ENE 6 7 3 4 1018.1 - 0.0
19/06:00pm 5.3 1.9 1.8 78 1.5 ENE 9 15 5 8 1017.9 1017.2 0.0
19/05:30pm 6.1 3.2 1.6 73 2.0 E 6 7 3 4 1017.7 - 0.0
19/05:00pm 7.3 4.3 1.8 68 2.4 SSW 7 11 4 6 1017.7 - 0.0
19/04:30pm 8.4 5.5 1.6 62 3.0 S 6 13 3 7 1017.4 - 0.0
19/04:00pm 8.8 5.4 1.9 62 3.1 S 9 15 5 8 1017.3 - 0.0
19/03:30pm 9.0 5.2 1.7 60 3.3 S 11 19 6 10 1017.2 - 0.0
19/03:00pm 9.0 5.1 1.4 59 3.4 S 11 19 6 10 1017.2 1016.5 0.0
19/02:30pm 9.2 4.5 1.1 57 3.6 SSW 15 20 8 11 1017.2 - 0.0
19/02:00pm 9.0 4.3 1.2 58 3.5 SSW 15 20 8 11 1017.2 - 0.0
19/01:30pm 8.8 3.7 1.0 58 3.4 SSW 17 20 9 11 1017.4 - 0.0
19/01:00pm 8.3 4.4 1.0 60 3.2 SSW 11 19 6 10 1017.8 - 0.0
19/12:30pm 7.9 3.9 0.6 60 3.2 SSW 11 17 6 9 1018.1 - 0.0
19/12:00pm 7.2 3.9 0.2 61 3.0 SSW 7 11 4 6 1018.6 1017.9 0.0
19/11:30am 6.7 2.9 1.8 71 2.2 S 11 17 6 9 1018.8 - 0.0
19/11:00am 6.1 2.9 0.6 68 2.3 SSW 7 15 4 8 1018.9 - 0.0
19/10:30am 5.4 1.0 0.4 70 2.1 S 13 20 7 11 1018.9 - 0.0
19/10:00am 4.9 0.2 0.9 75 1.7 SSW 15 22 8 12 1018.8 - 0.0
19/09:30am 3.8 -1.4 0.3 78 1.4 SSW 17 26 9 14 1018.9 - 0.0
19/09:00am 3.1 -1.8 -0.2 79 1.3 SSW 15 22 8 12 1018.8 1018.1 1.4
19/08:30am 2.8 -2.0 -0.1 81 1.2 S 15 22 8 12 1018.9 - 1.4
19/08:00am 2.7 -1.0 0.1 83 1.1 S 9 17 5 9 1018.5 - 1.4
19/07:30am 2.6 -1.9 -0.3 81 1.2 SSW 13 20 7 11 1018.2 - 1.4
19/07:00am 2.4 -1.4 -0.4 82 1.1 SSW 9 20 5 11 1017.9 - 1.4
19/06:55am 2.4 -0.9 -0.2 83 1.0 S 7 13 4 7 1017.9 - 1.4
19/06:43am 2.3 -0.9 -0.3 83 1.0 SSW 6 13 3 7 1017.9 - 1.4
19/06:30am 2.3 -2.2 -0.1 84 1.0 SSW 13 22 7 12 1017.8 - 1.4
19/06:00am 2.3 -1.3 0.5 88 0.7 S 9 15 5 8 1017.6 1016.8 1.4
19/05:30am 2.5 -1.1 0.6 87 0.8 S 9 19 5 10 1017.3 - 1.4
19/05:00am 2.5 -1.1 0.6 87 0.8 SSW 9 15 5 8 1017.1 - 1.4
19/04:30am 2.6 -2.2 0.5 86 0.9 SSW 15 20 8 11 1017.0 - 1.4
19/04:00am 2.7 -1.7 0.4 85 0.9 SSW 13 22 7 12 1016.8 - 1.4
19/03:30am 2.5 -2.2 0.7 88 0.7 SSW 15 22 8 12 1016.9 - 1.4
19/03:00am 2.5 -2.3 0.4 86 0.9 SSW 15 26 8 14 1017.0 1016.3 1.4
19/02:30am 2.3 -1.3 0.4 87 0.8 SSW 9 15 5 8 1017.1 - 1.4
19/02:00am 2.4 -2.4 0.5 87 0.8 SSW 15 24 8 13 1017.3 - 1.4
19/01:30am 1.9 -2.4 0.7 92 0.5 SW 13 19 7 10 1017.3 - 1.4
19/01:00am 1.1 -3.0 0.1 93 0.4 SSW 11 17 6 9 1017.2 - 1.4
19/12:30am 1.5 -2.1 0.6 94 0.4 SW 9 15 5 8 1017.6 - 1.4
19/12:00am 1.3 -2.3 0.6 95 0.3 SW 9 15 5 8 1017.7 1017.0 1.4
 
Date/Time
EST
Temp
°C
App
Temp
°C
Dew
Point
Rel
Hum
%
Delta-T
°C
Wind Press
QNH
hPa
Press
MSL
hPa
Rain
since 9 am
mm
Dir
 
Spd
km/h
Gust
km/h
Spd
kts
Gust
kts
18/11:30pm 1.2 -1.9 0.0 92 0.5 SW 6 7 3 4 1017.8 - 1.4
18/11:00pm 2.3 -1.6 1.1 92 0.5 SW 11 20 6 11 1017.9 - 1.4
18/10:30pm 1.3 -1.6 1.2 99 0.0 SSW 6 9 3 5 1018.2 - 1.4
18/10:00pm 1.6 -0.9 1.5 99 0.0 WSW 4 7 2 4 1018.5 - 1.4
18/09:30pm 2.5 -0.5 2.2 98 0.1 S 7 11 4 6 1018.5 - 1.4
18/09:00pm 3.1 -0.3 1.9 92 0.5 S 9 11 5 6 1018.4 1017.7 1.4
18/08:30pm 3.7 0.0 2.1 89 0.7 SW 11 17 6 9 1018.4 - 1.4
18/08:00pm 4.4 -0.3 3.1 91 0.6 SSW 17 20 9 11 1017.9 - 1.4
18/07:30pm 5.1 1.1 5.0 99 0.0 S 15 26 8 14 1017.6 - 1.4
18/07:00pm 6.2 4.0 6.1 99 0.0 S 7 13 4 7 1017.2 - 1.2
18/06:30pm 6.4 4.2 6.3 99 0.0 S 7 13 4 7 1016.7 - 1.2
18/06:00pm 6.9 4.1 6.8 99 0.0 SSW 11 17 6 9 1016.4 1015.7 1.2
18/05:30pm 7.4 5.1 7.3 99 0.1 S 9 17 5 9 1016.2 - 1.2
18/05:00pm 8.0 4.9 7.4 96 0.3 WSW 13 20 7 11 1015.9 - 1.2
18/04:30pm 8.1 5.0 7.3 95 0.4 WSW 13 20 7 11 1015.5 - 1.0
18/04:00pm 8.2 5.9 7.4 95 0.4 WSW 9 15 5 8 1015.4 - 0.8
18/03:30pm 8.5 5.7 6.8 89 0.9 W 11 17 6 9 1015.3 - 0.4
18/03:00pm 8.8 4.9 6.9 88 1.0 WNW 17 22 9 12 1015.2 1014.4 0.2
18/02:30pm 9.2 6.0 7.0 86 1.1 WNW 13 19 7 10 1015.2 - 0.0
18/02:00pm 9.4 5.3 6.1 80 1.6 NW 17 24 9 13 1015.2 - 0.0
18/01:30pm 9.3 5.0 5.1 75 2.0 WNW 17 26 9 14 1015.3 - 0.0
18/01:00pm 10.0 5.2 4.6 69 2.6 WNW 19 32 10 17 1015.5 - 0.0
18/12:30pm 9.6 4.6 4.4 70 2.5 WNW 20 28 11 15 1016.0 - 0.0
18/12:00pm 10.4 5.5 4.3 66 2.9 W 19 26 10 14 1016.3 1015.6 0.0
18/11:30am 11.8 5.8 3.3 56 4.0 WNW 24 37 13 20 1016.2 - 0.0
18/11:00am 10.8 5.7 6.0 72 2.4 WNW 22 33 12 18 1016.7 - 0.0
18/10:30am 9.2 4.3 4.0 70 2.5 WNW 19 30 10 16 1017.4 - 0.0
18/10:00am 9.4 4.6 4.6 72 2.3 WNW 19 33 10 18 1017.8 - 0.0
18/09:30am 9.4 4.2 3.8 68 2.6 WNW 20 37 11 20 1017.9 - 0.0
18/09:00am 9.8 3.3 4.6 70 2.5 WNW 28 37 15 20 1017.8 1017.1 0.2
18/08:30am 9.0 4.0 4.6 74 2.1 WNW 20 35 11 19 1017.9 - 0.2
18/08:00am 8.5 3.4 4.1 74 2.1 WNW 20 32 11 17 1017.6 - 0.2
18/07:30am 8.4 4.7 4.4 76 1.9 WNW 13 20 7 11 1017.7 - 0.2
18/07:00am 7.4 4.5 4.5 82 1.4 WNW 9 15 5 8 1017.6 - 0.2
18/06:30am 6.7 3.7 4.2 84 1.2 NW 9 19 5 10 1017.4 - 0.2
18/06:00am 5.2 2.6 3.2 87 0.9 W 6 7 3 4 1017.6 1016.8 0.2
18/05:30am 6.3 3.2 3.8 84 1.2 NW 9 17 5 9 1017.9 - 0.2
18/05:00am 6.8 2.7 4.3 84 1.2 WNW 15 19 8 10 1018.1 - 0.2
18/04:30am 7.2 3.2 5.0 86 1.0 WNW 15 26 8 14 1018.4 - 0.2
18/04:00am 6.6 3.3 4.4 86 1.0 WNW 11 17 6 9 1018.5 - 0.2
18/03:30am 6.8 3.2 4.8 87 0.9 W 13 19 7 10 1018.6 - 0.2
18/03:00am 5.9 3.3 4.4 90 0.7 WNW 7 15 4 8 1018.8 1018.1 0.2
18/02:30am 5.8 2.8 4.3 90 0.7 NW 9 11 5 6 1019.3 - 0.2
18/02:00am 5.6 2.6 4.1 90 0.7 WNW 9 15 5 8 1019.7 - 0.2
18/01:30am 6.4 2.8 5.0 91 0.7 WNW 13 15 7 8 1019.8 - 0.2
18/01:00am 6.9 3.0 5.4 90 0.7 WNW 15 20 8 11 1020.1 - 0.2
18/12:30am 6.4 2.5 5.2 92 0.6 WNW 15 19 8 10 1020.2 - 0.2
18/12:00am 5.3 2.4 4.4 94 0.4 WNW 9 13 5 7 1020.4 1019.8 0.2
 
Date/Time
EST
Temp
°C
App
Temp
°C
Dew
Point
Rel
Hum
%
Delta-T
°C
Wind Press
QNH
hPa
Press
MSL
hPa
Rain
since 9 am
mm
Dir
 
Spd
km/h
Gust
km/h
Spd
kts
Gust
kts
17/11:30pm 5.3 2.1 5.0 98 0.1 NW 11 13 6 7 1020.5 - 0.2
17/11:00pm 5.0 1.7 4.6 97 0.2 NW 11 13 6 7 1020.8 - 0.2
17/10:30pm 6.1 3.8 5.7 97 0.2 NNW 7 7 4 4 1021.3 - 0.2
17/10:00pm 5.6 2.8 5.3 98 0.1 NW 9 11 5 6 1021.6 - 0.2
17/09:49pm 5.2 2.3 4.6 96 0.3 NW 9 11 5 6 1021.6 - 0.2
17/09:30pm 5.3 2.4 4.6 95 0.3 NW 9 13 5 7 1021.8 - 0.2
17/09:00pm 6.3 3.9 5.1 92 0.6 NW 7 9 4 5 1021.8 1021.2 0.2
17/08:30pm 6.6 4.4 5.1 90 0.7 NW 6 7 3 4 1021.9 - 0.2
17/08:00pm 6.6 5.0 6.3 98 0.1 WNW 4 7 2 4 1021.9 - 0.2
17/07:30pm 7.1 5.9 6.5 96 0.3 WNW 2 4 1 2 1021.6 - 0.2
17/07:00pm 6.9 5.3 6.2 95 0.3 W 4 6 2 3 1021.8 - 0.2

Other Formats:

Comma delimited format used in spreadsheet applications
http://www.bom.gov.au/fwo/IDV60801/IDV60801.94905.axf

JavaScript Object Notation format (JSON) in row-major order
http://www.bom.gov.au/fwo/IDV60801/IDV60801.94905.json